Time;durP1;ratioP1;P1;durP2;ratioP2;P2;SDS_P1;SDS_P2;PMS_P1;PMS_P2;Temp;Humidity;BMP_temperature;BMP_pressure;BME280_temperature;BME280_humidity;BME280_pressure;Samples;Min_cycle;Max_cycle;Signal;HPM_P1;HPM_P2
2023/09/15 00:02:41;;;;;;;4.87;4.37;;;;;;;13.93;100.00;99836.97;4983737;28;20203;-86
2023/09/15 00:05:10;;;;;;;4.73;4.00;;;;;;;13.85;100.00;99836.53;4977545;28;20266;-86
2023/09/15 00:07:39;;;;;;;4.40;4.00;;;;;;;13.83;100.00;99839.44;4965704;28;20199;-86
2023/09/15 00:10:15;;;;;;;4.30;4.00;;;;;;;13.80;100.00;99831.84;4976491;28;20230;-86
2023/09/15 00:12:42;;;;;;;4.53;4.13;;;;;;;13.78;100.00;99836.63;4963130;28;20219;-85
2023/09/15 00:15:10;;;;;;;4.03;3.73;;;;;;;13.76;100.00;99833.38;4961435;28;20248;-86
2023/09/15 00:17:39;;;;;;;4.20;3.90;;;;;;;13.73;100.00;99830.31;4978381;28;20204;-85
2023/09/15 00:20:13;;;;;;;5.10;4.57;;;;;;;13.75;100.00;99839.81;4962429;28;20663;-86
2023/09/15 00:22:48;;;;;;;5.00;4.50;;;;;;;13.74;100.00;99848.94;4979380;28;20212;-86
2023/09/15 00:28:26;;;;;;;4.40;4.10;;;;;;;13.72;100.00;99845.66;5000443;23;20237;-88
2023/09/15 00:33:58;;;;;;;5.90;4.90;;;;;;;13.66;100.00;99860.06;5867128;23;20699;-88
2023/09/15 00:36:25;;;;;;;6.47;4.53;;;;;;;13.59;100.00;99854.78;4962568;28;20207;-88
2023/09/15 00:38:54;;;;;;;5.03;4.10;;;;;;;13.54;100.00;99865.44;4975489;28;20203;-88
2023/09/15 00:41:26;;;;;;;5.27;4.63;;;;;;;13.50;100.00;99871.50;4994928;28;20213;-88
2023/09/15 00:43:56;;;;;;;5.20;4.70;;;;;;;13.41;100.00;99860.28;4982223;28;20253;-87
2023/09/15 00:46:30;;;;;;;5.10;4.70;;;;;;;13.40;100.00;99872.09;4965271;28;20698;-88
2023/09/15 00:48:58;;;;;;;5.67;5.17;;;;;;;13.36;100.00;99867.41;4975965;28;20702;-87
2023/09/15 00:51:34;;;;;;;5.20;4.80;;;;;;;13.34;100.00;99869.53;4961792;28;20208;-87
2023/09/15 01:01:06;;;;;;;5.27;4.80;;;;;;;13.18;100.00;99871.00;5745329;23;20338;-86
2023/09/15 01:03:57;;;;;;;5.30;4.80;;;;;;;13.15;100.00;99866.09;5874605;23;20289;-87
2023/09/15 01:06:26;;;;;;;5.27;4.80;;;;;;;13.12;100.00;99864.66;4943374;28;20239;-85
2023/09/15 01:08:59;;;;;;;5.50;5.00;;;;;;;13.13;100.00;99865.47;4928551;28;20279;-85
2023/09/15 01:11:30;;;;;;;5.30;4.90;;;;;;;13.13;100.00;99868.16;4941062;28;20196;-86
2023/09/15 01:14:20;;;;;;;5.43;4.93;;;;;;;13.10;100.00;99863.22;5326585;23;20240;-85
2023/09/15 05:59:29;;;;;;;7.60;6.90;;;;;;;14.52;100.00;99887.03;5036329;23;20245;-88
2023/09/15 06:01:57;;;;;;;7.73;7.07;;;;;;;14.63;100.00;99889.94;4883641;29;20215;-90
2023/09/15 06:04:25;;;;;;;7.63;7.03;;;;;;;14.75;100.00;99896.09;4876954;29;20218;-89
2023/09/15 06:06:53;;;;;;;7.73;7.03;;;;;;;14.87;100.00;99888.78;4894809;29;20207;-90
2023/09/15 06:09:32;;;;;;;7.73;6.93;;;;;;;15.04;100.00;99886.13;4882866;29;20214;-90
2023/09/15 06:12:06;;;;;;;8.27;7.67;;;;;;;15.15;100.00;99901.44;4893815;29;20215;-90
2023/09/15 06:14:40;;;;;;;7.83;7.20;;;;;;;15.26;100.00;99889.75;4883181;29;20230;-90
2023/09/15 06:17:22;;;;;;;7.73;7.03;;;;;;;15.39;100.00;99892.97;4892217;29;20198;-90
2023/09/15 06:19:49;;;;;;;9.90;7.93;;;;;;;15.53;100.00;99884.59;4893160;29;20203;-92
2023/09/15 06:22:16;;;;;;;8.77;7.60;;;;;;;15.63;100.00;99882.84;4898393;29;20273;-90
2023/09/15 06:24:43;;;;;;;9.47;8.67;;;;;;;15.71;100.00;99887.03;4873903;29;20244;-90
2023/09/15 06:27:10;;;;;;;9.47;8.50;;;;;;;15.86;100.00;99889.97;4907168;29;20219;-90
2023/09/15 06:29:42;;;;;;;8.97;8.27;;;;;;;15.97;100.00;99888.22;4879345;29;20203;-89
2023/09/15 06:32:12;;;;;;;9.20;8.40;;;;;;;16.09;100.00;99886.25;4881764;29;20210;-90
2023/09/15 06:34:43;;;;;;;9.10;8.30;;;;;;;16.20;100.00;99888.81;4865075;29;20230;-81
2023/09/15 06:37:13;;;;;;;9.60;8.70;;;;;;;16.32;100.00;99886.00;4918239;29;20205;-81
2023/09/15 06:39:43;;;;;;;9.87;8.87;;;;;;;16.47;100.00;99885.41;4910713;29;20203;-83
2023/09/15 06:42:10;;;;;;;9.83;8.83;;;;;;;16.54;100.00;99889.53;4907541;29;20205;-83
2023/09/15 06:44:43;;;;;;;9.70;8.70;;;;;;;16.54;100.00;99886.00;4907835;29;20240;-80
2023/09/15 06:47:13;;;;;;;9.17;8.27;;;;;;;16.62;100.00;99881.00;4900844;29;20306;-81
2023/09/15 06:49:43;;;;;;;8.83;8.13;;;;;;;16.75;100.00;99881.69;4906648;29;20207;-83
2023/09/15 06:52:10;;;;;;;8.93;8.13;;;;;;;16.79;100.00;99882.81;4907711;29;20206;-80
2023/09/15 06:54:40;;;;;;;8.77;7.80;;;;;;;16.88;100.00;99878.59;4907504;29;20980;-81
2023/09/15 06:57:07;;;;;;;9.13;8.33;;;;;;;16.91;100.00;99878.06;4905083;29;20203;-80
2023/09/15 06:59:37;;;;;;;9.10;8.20;;;;;;;17.01;100.00;99870.06;4909374;29;20250;-81
2023/09/15 07:02:04;;;;;;;8.97;7.80;;;;;;;17.05;100.00;99874.72;4904240;29;20662;-81
2023/09/15 07:04:35;;;;;;;8.63;7.83;;;;;;;17.08;100.00;99866.06;4907553;29;20207;-84
2023/09/15 07:07:06;;;;;;;8.70;7.77;;;;;;;17.13;100.00;99865.28;4905048;29;20207;-81
2023/09/15 07:09:34;;;;;;;8.77;7.97;;;;;;;17.25;100.00;99865.97;4909560;29;20207;-80
2023/09/15 07:12:04;;;;;;;10.07;9.17;;;;;;;17.28;100.00;99862.72;4912747;29;20719;-84
2023/09/15 07:14:31;;;;;;;9.10;7.87;;;;;;;17.40;100.00;99860.69;4909444;29;20357;-80
2023/09/15 07:16:59;;;;;;;9.60;8.63;;;;;;;17.52;100.00;99865.91;4904758;29;20249;-81
2023/09/15 07:19:31;;;;;;;9.20;8.37;;;;;;;17.29;100.00;99864.38;4902286;29;20205;-81
2023/09/15 07:21:58;;;;;;;9.93;8.77;;;;;;;17.27;100.00;99863.78;4907917;29;20195;-81
2023/09/15 07:24:30;;;;;;;9.47;8.57;;;;;;;17.47;100.00;99860.44;4913978;29;20225;-81
2023/09/15 07:26:57;;;;;;;10.13;8.67;;;;;;;17.55;100.00;99862.66;4904241;29;20200;-81
2023/09/15 07:29:29;;;;;;;9.67;8.67;;;;;;;17.48;100.00;99864.78;4908654;29;20230;-81
2023/09/15 07:31:57;;;;;;;9.23;8.30;;;;;;;17.45;100.00;99870.75;4911049;29;20195;-81
2023/09/15 07:34:24;;;;;;;9.30;7.83;;;;;;;17.58;100.00;99862.16;4898109;29;20310;-81
2023/09/15 07:36:54;;;;;;;8.80;7.90;;;;;;;17.62;100.00;99863.31;4910875;29;20264;-80
2023/09/15 07:39:29;;;;;;;8.10;7.40;;;;;;;17.81;100.00;99855.59;4906589;29;20438;-81
2023/09/15 07:41:57;;;;;;;8.60;7.73;;;;;;;17.97;100.00;99860.00;4907493;29;20279;-81
2023/09/15 07:44:27;;;;;;;8.97;8.07;;;;;;;18.04;100.00;99857.91;4912800;29;20289;-82
2023/09/15 07:46:56;;;;;;;8.80;7.97;;;;;;;18.17;100.00;99854.72;4906482;29;20211;-82
2023/09/15 07:49:23;;;;;;;8.87;8.07;;;;;;;18.24;100.00;99852.59;4908882;29;20200;-81
2023/09/15 07:51:54;;;;;;;10.17;8.97;;;;;;;18.06;100.00;99847.59;4906416;29;20668;-81
2023/09/15 07:54:26;;;;;;;10.20;9.20;;;;;;;17.97;100.00;99858.13;4906600;29;20244;-81
2023/09/15 07:56:53;;;;;;;8.43;7.63;;;;;;;18.09;100.00;99859.81;4904316;29;20228;-81
2023/09/15 07:59:20;;;;;;;10.10;8.53;;;;;;;17.99;100.00;99858.69;4910660;29;20243;-81
2023/09/15 08:01:47;;;;;;;9.23;8.27;;;;;;;18.22;100.00;99856.63;4910188;29;20276;-81
2023/09/15 08:04:17;;;;;;;9.90;9.00;;;;;;;18.25;100.00;99854.19;4912871;29;20204;-81
2023/09/15 08:06:51;;;;;;;9.20;8.30;;;;;;;18.38;100.00;99847.50;4911627;29;20200;-81
2023/09/15 08:09:25;;;;;;;9.70;8.80;;;;;;;18.39;100.00;99849.09;4914962;29;20201;-81
2023/09/15 08:11:52;;;;;;;9.00;8.10;;;;;;;18.56;100.00;99854.38;4908284;29;20200;-80
2023/09/15 08:14:20;;;;;;;8.53;7.70;;;;;;;18.79;100.00;99865.56;4905276;29;20229;-81
2023/09/15 08:16:49;;;;;;;8.33;7.53;;;;;;;18.94;100.00;99856.66;4906547;29;20222;-81
2023/09/15 08:19:20;;;;;;;9.63;8.23;;;;;;;19.13;100.00;99854.22;4912522;29;20213;-81
2023/09/15 08:21:50;;;;;;;8.93;8.03;;;;;;;19.27;100.00;99852.63;4916338;29;20214;-81
2023/09/15 08:24:20;;;;;;;8.13;7.33;;;;;;;19.39;100.00;99861.28;4911465;29;20205;-81
2023/09/15 08:26:49;;;;;;;9.10;8.30;;;;;;;19.30;100.00;99852.88;4911345;29;20257;-81
2023/09/15 08:29:16;;;;;;;9.67;8.77;;;;;;;19.45;100.00;99845.84;4909287;29;20211;-81
2023/09/15 08:31:49;;;;;;;9.23;8.00;;;;;;;19.56;100.00;99853.72;4911475;29;20204;-81
2023/09/15 08:34:18;;;;;;;9.43;8.53;;;;;;;19.39;100.00;99857.75;4911128;29;20303;-81
2023/09/15 08:36:47;;;;;;;10.03;9.03;;;;;;;19.48;100.00;99846.09;4899780;29;20205;-83
2023/09/15 08:39:17;;;;;;;10.03;9.13;;;;;;;19.35;100.00;99846.63;4901963;29;20198;-81
2023/09/15 08:41:51;;;;;;;9.17;8.20;;;;;;;19.35;100.00;99844.72;4901353;29;20660;-82
2023/09/15 08:44:21;;;;;;;9.70;8.80;;;;;;;19.30;100.00;99842.00;4893656;29;20206;-81
2023/09/15 08:46:52;;;;;;;9.03;8.23;;;;;;;19.16;100.00;99829.25;4883533;29;20212;-82
2023/09/15 08:49:20;;;;;;;10.30;9.20;;;;;;;19.14;100.00;99825.97;4882461;29;20317;-81
2023/09/15 08:51:47;;;;;;;10.00;9.10;;;;;;;19.18;100.00;99829.75;4909029;29;20275;-82
2023/09/15 08:54:16;;;;;;;9.83;8.93;;;;;;;19.17;100.00;99830.88;4902269;29;20234;-81
2023/09/15 08:56:46;;;;;;;10.70;9.67;;;;;;;19.21;100.00;99827.34;4884605;29;20198;-82
2023/09/15 08:59:16;;;;;;;9.83;9.03;;;;;;;19.36;100.00;99824.59;4895199;29;20922;-82
2023/09/15 09:01:46;;;;;;;10.60;9.60;;;;;;;19.49;100.00;99826.00;4906109;29;20285;-81
2023/09/15 09:04:13;;;;;;;9.57;8.63;;;;;;;19.64;100.00;99825.97;4905682;29;20228;-81
2023/09/15 09:06:45;;;;;;;9.53;8.70;;;;;;;19.81;100.00;99814.81;4902720;29;20289;-81
2023/09/15 09:09:15;;;;;;;8.23;7.47;;;;;;;19.91;100.00;99822.94;4905734;29;20206;-83
2023/09/15 09:11:49;;;;;;;9.60;8.70;;;;;;;20.08;100.00;99826.16;4890363;29;20218;-81
2023/09/15 09:14:20;;;;;;;12.30;8.00;;;;;;;20.20;100.00;99821.19;4912162;29;20873;-82
2023/09/15 09:16:48;;;;;;;9.73;8.73;;;;;;;20.22;100.00;99826.38;4908864;29;20736;-81
2023/09/15 09:19:15;;;;;;;9.23;8.33;;;;;;;20.43;100.00;99821.69;4906539;29;20202;-81
2023/09/15 09:21:42;;;;;;;9.57;8.57;;;;;;;20.53;100.00;99813.50;4911998;29;20200;-82
2023/09/15 09:24:15;;;;;;;9.73;8.93;;;;;;;20.53;100.00;99813.50;4902906;29;20211;-81
2023/09/15 09:26:56;;;;;;;9.37;8.20;;;;;;;20.55;100.00;99808.56;4907385;29;20269;-82
2023/09/15 09:29:30;;;;;;;7.93;7.13;;;;;;;20.60;100.00;99813.97;4905526;29;20250;-81
2023/09/15 09:31:57;;;;;;;10.57;7.23;;;;;;;20.72;100.00;99811.72;4903739;29;20687;-81
2023/09/15 09:34:24;;;;;;;8.95;7.97;;;;;;;20.82;100.00;99808.13;4910686;29;20320;-81
2023/09/15 09:37:12;;;;;;;9.45;8.45;;;;;;;20.79;100.00;99805.97;4911078;29;20280;-81
2023/09/15 09:39:39;;;;;;;12.63;9.73;;;;;;;20.89;100.00;99805.91;4915106;29;20227;-81
2023/09/15 09:42:08;;;;;;;9.68;8.73;;;;;;;21.01;100.00;99792.75;4911332;29;20268;-81
2023/09/15 09:44:36;;;;;;;8.02;7.32;;;;;;;21.24;100.00;99794.75;4893778;29;20207;-81
2023/09/15 09:47:09;;;;;;;11.48;7.55;;;;;;;21.26;100.00;99797.22;4905730;29;20206;-81
2023/09/15 09:49:39;;;;;;;7.50;6.70;;;;;;;21.15;100.00;99803.84;4900378;29;20207;-81
2023/09/15 09:52:06;;;;;;;7.20;6.47;;;;;;;21.17;100.00;99799.75;4904613;29;20667;-81
2023/09/15 09:54:36;;;;;;;6.88;6.32;;;;;;;21.41;100.00;99805.25;4902026;29;20711;-81
2023/09/15 09:57:07;;;;;;;7.47;6.78;;;;;;;21.28;100.00;99800.44;4901638;29;20241;-81
2023/09/15 09:59:44;;;;;;;7.28;6.57;;;;;;;21.39;100.00;99797.38;4905953;29;20237;-81
2023/09/15 10:02:14;;;;;;;10.45;7.05;;;;;;;21.39;100.00;99797.38;4893339;29;20594;-81
2023/09/15 10:04:45;;;;;;;5.22;4.82;;;;;;;21.63;100.00;99799.31;4907448;29;20922;-82
2023/09/15 10:07:13;;;;;;;5.18;4.68;;;;;;;21.80;100.00;99796.94;4915934;29;20206;-82
2023/09/15 10:09:58;;;;;;;5.93;5.35;;;;;;;21.95;100.00;99802.28;4915670;29;20204;-81
2023/09/15 10:12:27;;;;;;;5.90;5.40;;;;;;;21.86;100.00;99804.81;4918293;29;20692;-81
2023/09/15 10:14:56;;;;;;;5.78;5.22;;;;;;;22.06;100.00;99806.53;4911946;29;20707;-82
2023/09/15 10:17:23;;;;;;;6.70;6.10;;;;;;;21.99;100.00;99799.78;4891038;29;20202;-83
2023/09/15 10:19:51;;;;;;;7.28;6.65;;;;;;;21.97;100.00;99800.09;4894383;29;20206;-81
2023/09/15 10:22:20;;;;;;;6.75;5.45;;;;;;;22.09;100.00;99789.56;4905006;29;20216;-81
2023/09/15 10:24:57;;;;;;;5.32;4.82;;;;;;;22.16;100.00;99786.50;4909745;29;20206;-81
2023/09/15 10:27:29;;;;;;;5.07;4.57;;;;;;;22.31;100.00;99784.38;4902481;29;20206;-81
2023/09/15 10:30:04;;;;;;;6.15;5.53;;;;;;;22.36;100.00;99780.75;4906042;29;20264;-80
2023/09/15 10:32:39;;;;;;;4.80;4.40;;;;;;;22.11;100.00;99776.47;4907606;29;20208;-81
2023/09/15 10:35:07;;;;;;;4.35;3.95;;;;;;;22.45;100.00;99778.19;4903413;29;20691;-81
2023/09/15 10:37:44;;;;;;;3.63;3.33;;;;;;;22.78;100.00;99777.19;4908875;29;20203;-81
2023/09/15 10:40:13;;;;;;;4.20;3.17;;;;;;;22.73;100.00;99777.25;4918263;29;20209;-82
2023/09/15 10:42:48;;;;;;;3.30;3.05;;;;;;;22.73;100.00;99763.59;4897744;29;20690;-81
2023/09/15 10:45:16;;;;;;;5.70;3.58;;;;;;;22.15;100.00;99766.59;4906249;29;20209;-82
2023/09/15 10:48:07;;;;;;;;;;;;;;;;;;;;;
2023/09/15 10:50:41;;;;;;;4.80;3.30;;;;;;;22.75;100.00;99764.13;4911441;29;20204;-81
2023/09/15 10:53:15;;;;;;;6.53;4.28;;;;;;;22.49;100.00;99758.19;4909255;29;20289;-81
2023/09/15 10:55:48;;;;;;;5.32;4.82;;;;;;;22.70;100.00;99761.47;4910774;29;20301;-81
2023/09/15 10:58:18;;;;;;;4.05;3.72;;;;;;;22.79;100.00;99746.03;4915196;29;21199;-81
2023/09/15 11:00:49;;;;;;;4.93;4.20;;;;;;;22.95;100.00;99749.34;4911071;29;20243;-81
2023/09/15 11:03:26;;;;;;;6.03;4.72;;;;;;;23.05;100.00;99746.47;4912904;29;20742;-82
2023/09/15 11:06:08;;;;;;;5.85;3.58;;;;;;;23.15;100.00;99751.72;4907964;29;20218;-81
2023/09/15 11:08:38;;;;;;;3.92;3.35;;;;;;;22.65;100.00;99736.94;4895806;29;20202;-81
2023/09/15 11:11:11;;;;;;;3.92;3.42;;;;;;;22.87;100.00;99744.53;4908558;29;20239;-81
2023/09/15 11:13:41;;;;;;;4.30;3.35;;;;;;;22.92;100.00;99748.00;4909837;29;20232;-82
2023/09/15 11:16:11;;;;;;;4.40;4.00;;;;;;;22.96;100.00;99749.03;4911844;29;20330;-81
2023/09/15 11:18:44;;;;;;;4.40;4.00;;;;;;;22.84;100.00;99735.03;4897144;29;20221;-83
2023/09/15 11:21:12;;;;;;;4.10;3.40;;;;;;;22.98;100.00;99737.81;4908215;29;20276;-81
2023/09/15 11:23:45;;;;;;;4.10;3.70;;;;;;;23.17;100.00;99736.66;4912198;29;20221;-81
2023/09/15 11:26:14;;;;;;;3.88;3.58;;;;;;;23.13;100.00;99732.91;4909518;29;20207;-81
2023/09/15 11:28:56;;;;;;;3.83;3.40;;;;;;;22.79;100.00;99735.13;4911138;29;20209;-81
2023/09/15 11:31:23;;;;;;;3.58;3.05;;;;;;;23.24;100.00;99726.16;4910988;29;20203;-81
2023/09/15 11:33:55;;;;;;;3.58;3.28;;;;;;;23.57;100.00;99728.84;4896057;29;20209;-81
2023/09/15 11:36:35;;;;;;;3.70;3.40;;;;;;;23.83;100.00;99726.44;4896558;29;20196;-81
2023/09/15 11:39:10;;;;;;;5.28;3.35;;;;;;;23.92;99.27;99725.44;4909742;29;20202;-81
2023/09/15 11:41:40;;;;;;;4.05;3.53;;;;;;;23.78;100.00;99727.38;4906732;29;20200;-81
2023/09/15 11:44:09;;;;;;;4.20;3.80;;;;;;;23.92;97.03;99724.63;4892587;29;20261;-81
2023/09/15 11:46:40;;;;;;;4.80;3.97;;;;;;;24.05;94.59;99723.78;4912904;29;20211;-81
2023/09/15 11:49:09;;;;;;;4.32;3.53;;;;;;;23.84;96.86;99717.94;4912225;29;20242;-82
2023/09/15 11:51:41;;;;;;;4.13;3.72;;;;;;;23.61;96.08;99724.41;4908173;29;20216;-81
2023/09/15 11:54:09;;;;;;;4.10;3.75;;;;;;;23.65;95.08;99720.78;4911634;29;20229;-81
2023/09/15 11:56:37;;;;;;;5.15;3.50;;;;;;;23.89;94.44;99720.56;4897088;29;20223;-81
2023/09/15 11:59:05;;;;;;;3.20;3.00;;;;;;;24.29;94.12;99709.91;4886823;29;20246;-81
2023/09/15 12:01:54;;;;;;;3.50;3.20;;;;;;;24.53;93.43;99710.44;4891519;29;20230;-81
2023/09/15 12:04:24;;;;;;;3.38;2.92;;;;;;;24.58;95.92;99696.63;4888171;29;20216;-81
2023/09/15 12:06:52;;;;;;;3.10;2.80;;;;;;;24.38;96.54;99695.16;4886045;29;20317;-81
2023/09/15 12:09:23;;;;;;;3.15;2.95;;;;;;;24.42;95.79;99698.91;4888489;29;20218;-81
2023/09/15 12:11:55;;;;;;;3.30;3.10;;;;;;;24.47;93.95;99693.31;4895082;29;20309;-81
2023/09/15 12:14:23;;;;;;;3.50;3.30;;;;;;;24.58;93.45;99695.81;4889655;29;20203;-81
2023/09/15 12:16:55;;;;;;;3.53;3.30;;;;;;;24.54;92.92;99685.47;4892697;29;20227;-81
2023/09/15 12:19:22;;;;;;;3.55;3.00;;;;;;;24.60;92.88;99688.09;4889419;29;20270;-81
2023/09/15 12:21:55;;;;;;;3.80;3.45;;;;;;;24.68;91.08;99674.47;4889936;29;20210;-81
2023/09/15 12:24:23;;;;;;;3.50;3.20;;;;;;;24.77;89.64;99678.09;4890990;29;20208;-81
2023/09/15 12:26:54;;;;;;;3.20;3.00;;;;;;;24.84;88.96;99672.16;4893622;29;20198;-81
2023/09/15 12:29:24;;;;;;;3.58;3.33;;;;;;;24.89;89.76;99669.31;4894481;29;20212;-81
2023/09/15 12:31:57;;;;;;;4.63;3.30;;;;;;;24.67;88.47;99661.91;4883362;29;20286;-81
2023/09/15 12:34:29;;;;;;;4.05;3.33;;;;;;;24.27;91.98;99657.38;4887347;29;20211;-81
2023/09/15 12:36:58;;;;;;;3.60;3.40;;;;;;;23.62;91.97;99661.19;4887065;29;20206;-81
2023/09/15 12:39:28;;;;;;;6.57;3.30;;;;;;;23.75;95.10;99661.53;4911213;29;20206;-81
2023/09/15 12:41:59;;;;;;;3.67;3.38;;;;;;;23.91;95.53;99660.88;4885910;29;20210;-81
2023/09/15 12:44:42;;;;;;;3.38;3.08;;;;;;;24.26;92.67;99653.03;4894074;29;20271;-81
2023/09/15 12:47:23;;;;;;;3.83;3.17;;;;;;;24.48;92.52;99650.31;4888614;29;20250;-81
2023/09/15 12:49:51;;;;;;;5.97;3.72;;;;;;;24.54;92.41;99649.84;4889371;29;20219;-81
2023/09/15 12:52:19;;;;;;;3.63;3.33;;;;;;;24.51;90.41;99646.94;4884631;29;20679;-81
2023/09/15 12:54:46;;;;;;;3.65;3.08;;;;;;;24.76;91.26;99640.03;4886867;29;20223;-81
2023/09/15 12:57:18;;;;;;;3.42;3.08;;;;;;;24.79;89.74;99637.47;4887223;29;20290;-81
2023/09/15 12:59:51;;;;;;;4.07;3.35;;;;;;;25.01;88.73;99628.41;4891762;29;20333;-81
2023/09/15 13:02:18;;;;;;;3.30;3.00;;;;;;;25.26;88.13;99622.25;4911883;29;20209;-81
2023/09/15 13:04:46;;;;;;;2.75;2.53;;;;;;;25.60;85.78;99623.53;4905487;29;20206;-81
2023/09/15 13:07:19;;;;;;;3.10;2.90;;;;;;;25.83;84.55;99614.06;4896999;29;20263;-81
2023/09/15 13:09:47;;;;;;;2.90;2.70;;;;;;;25.73;84.04;99611.63;4904421;29;20202;-81
2023/09/15 13:12:14;;;;;;;3.92;3.00;;;;;;;25.65;83.28;99609.69;4904685;29;20206;-82
2023/09/15 13:14:41;;;;;;;3.28;2.85;;;;;;;25.79;82.66;99610.34;4895249;29;20218;-81
2023/09/15 13:17:12;;;;;;;3.13;2.83;;;;;;;25.94;80.36;99603.59;4907030;29;20285;-81
2023/09/15 13:19:44;;;;;;;3.03;2.83;;;;;;;25.88;80.96;99607.63;4895913;29;20309;-81
2023/09/15 13:22:11;;;;;;;2.90;2.70;;;;;;;26.11;81.29;99604.41;4901583;29;20210;-81
2023/09/15 13:24:40;;;;;;;3.50;3.00;;;;;;;26.07;81.03;99595.19;4915510;29;20281;-81
2023/09/15 13:27:11;;;;;;;3.55;2.97;;;;;;;26.13;80.39;99595.84;4915689;29;20210;-81
2023/09/15 13:29:39;;;;;;;2.90;2.70;;;;;;;26.16;80.26;99593.25;4909655;29;20235;-82
2023/09/15 13:32:10;;;;;;;3.22;2.60;;;;;;;26.37;80.07;99598.09;4906179;29;20207;-81
2023/09/15 13:34:37;;;;;;;3.05;2.85;;;;;;;26.38;79.15;99599.72;4906164;29;20214;-81
2023/09/15 13:37:06;;;;;;;2.85;2.65;;;;;;;26.36;77.50;99593.78;4905132;29;20681;-82
2023/09/15 13:39:39;;;;;;;3.72;2.80;;;;;;;26.19;78.54;99591.78;4896271;29;20199;-81
2023/09/15 13:42:07;;;;;;;2.90;2.70;;;;;;;25.99;78.18;99589.72;4896899;29;20203;-81
2023/09/15 13:44:40;;;;;;;3.20;2.90;;;;;;;25.84;77.15;99591.00;4910899;29;20726;-81
2023/09/15 13:47:09;;;;;;;3.00;2.67;;;;;;;25.83;77.15;99584.69;4904675;29;20281;-81
2023/09/15 13:49:38;;;;;;;2.50;2.30;;;;;;;25.70;77.80;99576.59;4901828;29;20217;-81
2023/09/15 13:52:08;;;;;;;3.47;2.75;;;;;;;25.50;79.92;99580.72;4915335;29;20289;-81
2023/09/15 13:54:37;;;;;;;3.00;2.72;;;;;;;25.51;79.43;99578.78;4904102;29;20233;-81
2023/09/15 13:57:17;;;;;;;2.90;2.67;;;;;;;25.40;79.16;99576.34;4890897;29;20660;-81
2023/09/15 13:59:59;;;;;;;3.25;2.75;;;;;;;25.37;81.01;99571.50;4907749;29;20305;-81
2023/09/15 14:02:27;;;;;;;2.88;2.67;;;;;;;25.44;80.48;99574.56;4898200;29;20207;-82
2023/09/15 14:04:56;;;;;;;2.95;2.63;;;;;;;25.60;78.77;99574.97;4916879;29;20714;-81
2023/09/15 14:07:26;;;;;;;2.80;2.60;;;;;;;25.97;78.23;99570.81;4904169;29;20690;-81
2023/09/15 14:09:56;;;;;;;3.15;2.90;;;;;;;26.20;77.63;99568.72;4894872;29;20333;-80
2023/09/15 14:12:23;;;;;;;2.55;2.33;;;;;;;26.22;76.20;99566.47;4906612;29;20681;-81
2023/09/15 14:14:50;;;;;;;2.85;2.50;;;;;;;26.17;76.63;99559.19;4901294;29;20278;-81
2023/09/15 14:17:18;;;;;;;2.70;2.50;;;;;;;26.16;76.72;99557.56;4895925;29;20271;-81
2023/09/15 14:19:45;;;;;;;4.05;2.65;;;;;;;26.08;75.52;99558.34;4901943;29;20218;-81
2023/09/15 14:22:12;;;;;;;2.67;2.50;;;;;;;25.79;76.96;99552.72;4900824;29;20230;-81
2023/09/15 14:24:39;;;;;;;2.65;2.53;;;;;;;25.73;77.68;99557.56;4885463;29;20301;-81
2023/09/15 14:27:09;;;;;;;2.80;2.60;;;;;;;25.60;76.95;99554.97;4902078;29;20207;-81
2023/09/15 14:29:45;;;;;;;2.90;2.70;;;;;;;25.74;77.84;99547.38;4895459;29;20215;-82
2023/09/15 14:32:12;;;;;;;2.45;2.30;;;;;;;25.74;77.48;99561.91;4903526;29;20652;-81
2023/09/15 14:34:43;;;;;;;2.42;2.22;;;;;;;25.57;76.59;99559.13;4905922;29;20470;-81
2023/09/15 14:37:13;;;;;;;2.67;2.35;;;;;;;25.50;76.48;99555.22;4902402;29;20215;-81
2023/09/15 14:39:46;;;;;;;2.30;2.20;;;;;;;25.52;76.10;99556.53;4911479;29;20209;-81
2023/09/15 14:42:17;;;;;;;2.70;2.50;;;;;;;25.60;79.56;99566.75;4903927;29;20307;-81
2023/09/15 14:44:50;;;;;;;2.47;2.35;;;;;;;25.72;76.77;99561.41;4903902;29;20298;-81
2023/09/15 14:47:17;;;;;;;2.63;2.42;;;;;;;25.71;75.49;99559.03;4904035;29;20243;-81
2023/09/15 14:49:50;;;;;;;2.85;2.65;;;;;;;25.79;75.58;99560.97;4897314;29;20444;-81
2023/09/15 14:52:18;;;;;;;4.72;2.72;;;;;;;25.50;77.20;99553.28;4892666;29;20209;-81
2023/09/15 14:54:48;;;;;;;2.72;2.50;;;;;;;25.62;77.46;99553.50;4917843;29;20203;-81
2023/09/15 14:57:16;;;;;;;2.28;2.10;;;;;;;25.94;77.29;99549.50;4917545;29;20206;-81
2023/09/15 14:59:45;;;;;;;2.90;2.70;;;;;;;26.31;77.68;99552.75;4891669;29;20241;-81
2023/09/15 15:02:18;;;;;;;2.72;2.53;;;;;;;26.36;76.66;99553.38;4883482;29;20259;-81
2023/09/15 15:04:45;;;;;;;2.50;2.30;;;;;;;26.33;76.10;99558.69;4887990;29;20220;-81
2023/09/15 15:07:14;;;;;;;2.45;2.30;;;;;;;26.04;76.01;99540.94;4896577;29;20203;-81
2023/09/15 15:09:42;;;;;;;2.65;2.45;;;;;;;25.80;76.59;99546.13;4895030;29;20204;-81
2023/09/15 15:12:23;;;;;;;2.60;2.40;;;;;;;25.59;77.43;99543.16;4894934;29;20213;-82
2023/09/15 15:14:56;;;;;;;2.97;2.75;;;;;;;25.39;78.59;99539.06;4889678;29;20214;-81
2023/09/15 15:17:25;;;;;;;2.55;2.45;;;;;;;25.31;79.58;99542.59;4910196;29;20197;-81
2023/09/15 15:19:53;;;;;;;2.30;2.20;;;;;;;25.11;81.15;99543.19;4888232;29;20204;-81
2023/09/15 15:22:22;;;;;;;3.25;2.90;;;;;;;25.09;81.39;99547.38;4890625;29;20211;-81
2023/09/15 15:24:57;;;;;;;3.58;3.28;;;;;;;25.01;81.72;99546.19;4882967;29;20210;-81
2023/09/15 15:27:25;;;;;;;3.00;2.80;;;;;;;24.89;82.31;99546.00;4908560;29;20208;-81
2023/09/15 15:30:00;;;;;;;3.20;3.00;;;;;;;24.75;83.55;99535.09;4890274;29;20237;-81
2023/09/15 15:32:28;;;;;;;2.67;2.47;;;;;;;24.77;84.09;99537.53;4913503;29;20239;-82
2023/09/15 15:34:58;;;;;;;2.90;2.70;;;;;;;24.74;84.06;99541.69;4898519;29;20210;-81
2023/09/15 15:37:27;;;;;;;3.38;2.97;;;;;;;24.62;84.29;99535.19;4889074;29;20290;-81
2023/09/15 15:40:03;;;;;;;2.70;2.50;;;;;;;24.46;85.48;99532.03;4895292;29;20217;-82
2023/09/15 15:42:33;;;;;;;2.95;2.75;;;;;;;24.40;86.19;99530.59;4879808;29;20222;-81
2023/09/15 15:45:01;;;;;;;3.17;2.88;;;;;;;24.36;87.16;99529.56;4880032;29;20248;-81
2023/09/15 15:47:41;;;;;;;3.22;2.92;;;;;;;24.30;87.47;99528.91;4879858;29;20247;-81
2023/09/15 15:50:10;;;;;;;2.75;2.58;;;;;;;24.20;88.54;99537.38;4879820;29;20219;-81
2023/09/15 15:52:37;;;;;;;3.22;3.03;;;;;;;24.09;89.31;99534.03;4887424;29;20211;-81
2023/09/15 15:55:08;;;;;;;3.08;2.88;;;;;;;24.03;88.90;99538.00;4896980;29;20197;-81
2023/09/15 15:57:35;;;;;;;2.90;2.70;;;;;;;23.94;90.67;99528.91;4889096;29;20205;-81
2023/09/15 16:00:06;;;;;;;2.95;2.75;;;;;;;23.82;91.28;99534.13;4907886;29;20737;-81
2023/09/15 16:02:35;;;;;;;4.38;2.70;;;;;;;23.72;91.87;99542.56;4890552;29;20214;-81
2023/09/15 16:05:04;;;;;;;3.22;2.90;;;;;;;23.49;94.06;99538.16;4890397;29;20242;-81
2023/09/15 16:07:31;;;;;;;2.97;2.78;;;;;;;23.42;95.90;99540.50;4881973;29;20270;-81
2023/09/15 16:10:02;;;;;;;3.20;2.78;;;;;;;23.28;95.91;99540.50;4884217;29;20203;-81
2023/09/15 16:12:38;;;;;;;2.97;2.78;;;;;;;23.11;97.89;99546.56;4895180;29;20673;-81
2023/09/15 16:15:09;;;;;;;3.22;2.92;;;;;;;22.96;100.00;99546.06;4884846;29;20204;-81
2023/09/15 16:17:36;;;;;;;2.88;2.67;;;;;;;22.85;100.00;99550.09;4885931;29;20664;-81
2023/09/15 16:20:03;;;;;;;2.50;2.35;;;;;;;22.77;100.00;99541.47;4888120;29;20215;-81
2023/09/15 16:22:33;;;;;;;5.20;3.92;;;;;;;22.66;100.00;99552.88;4886714;29;20732;-81
2023/09/15 16:25:06;;;;;;;5.15;4.68;;;;;;;22.60;100.00;99549.44;4884321;29;20349;-81
2023/09/15 16:27:34;;;;;;;3.78;3.47;;;;;;;22.47;100.00;99549.41;4894577;29;20648;-81
2023/09/15 16:30:02;;;;;;;4.05;2.92;;;;;;;22.47;100.00;99546.66;4883947;29;20714;-81
2023/09/15 16:32:30;;;;;;;3.28;3.08;;;;;;;22.36;100.00;99552.28;4887113;29;20206;-81
2023/09/15 16:34:59;;;;;;;3.33;2.72;;;;;;;22.25;100.00;99556.31;4887979;29;20196;-82
2023/09/15 16:37:26;;;;;;;3.58;3.00;;;;;;;22.16;100.00;99555.34;4886671;29;20241;-81
2023/09/15 16:39:56;;;;;;;3.25;2.95;;;;;;;22.02;100.00;99548.25;4879101;29;20205;-81
2023/09/15 16:42:26;;;;;;;2.90;2.67;;;;;;;21.90;100.00;99548.66;4892550;29;20246;-81